createdAt,value
2022-11-22T00:00:22.372Z,23.10
2022-11-22T00:01:22.328Z,20.60
2022-11-22T00:02:22.397Z,16.60
2022-11-22T00:03:22.284Z,20.90
2022-11-22T00:04:22.265Z,20.60
2022-11-22T00:05:22.277Z,19.10
2022-11-22T00:06:22.232Z,19.30
2022-11-22T00:07:22.285Z,16.40
2022-11-22T00:08:22.195Z,14.90
2022-11-22T00:09:22.178Z,12.40
2022-11-22T00:10:22.185Z,14.10
2022-11-22T00:11:22.137Z,13.10
2022-11-22T00:12:22.117Z,12.20
2022-11-22T00:13:22.132Z,11.40
2022-11-22T00:14:22.108Z,13.80
2022-11-22T00:15:22.060Z,12.20
2022-11-22T00:16:22.087Z,12.50
2022-11-22T00:17:22.022Z,11.80
2022-11-22T00:18:22.003Z,15.90
2022-11-22T00:19:21.991Z,11.00
2022-11-22T00:20:21.966Z,12.10
2022-11-22T00:21:21.977Z,10.80
2022-11-22T00:22:21.934Z,12.00
2022-11-22T00:23:21.917Z,13.10
2022-11-22T00:24:22.000Z,12.50
2022-11-22T00:25:21.918Z,12.20
2022-11-22T00:26:21.895Z,13.80
2022-11-22T00:27:21.893Z,14.10
2022-11-22T00:28:21.820Z,12.90
2022-11-22T00:29:21.800Z,13.70
2022-11-22T00:30:21.790Z,13.20
2022-11-22T00:31:21.797Z,11.60
2022-11-22T00:32:21.747Z,15.50
2022-11-22T00:33:21.724Z,13.70
2022-11-22T00:34:21.738Z,14.50
2022-11-22T00:35:21.689Z,16.80
2022-11-22T00:36:21.697Z,14.10
2022-11-22T00:37:21.666Z,17.10
2022-11-22T00:38:21.634Z,14.60
2022-11-22T00:39:21.644Z,12.20
2022-11-22T00:40:21.594Z,12.40
2022-11-22T00:41:21.591Z,12.70
2022-11-22T00:42:21.555Z,12.90
2022-11-22T00:43:21.583Z,13.50
2022-11-22T00:44:21.553Z,13.30
2022-11-22T00:45:21.503Z,14.50
2022-11-22T00:46:21.508Z,15.90
2022-11-22T00:47:21.476Z,14.00
2022-11-22T00:48:21.441Z,13.20
2022-11-22T00:49:21.422Z,14.30
2022-11-22T00:50:21.421Z,15.30
2022-11-22T00:51:21.415Z,15.00
2022-11-22T00:52:21.367Z,12.50
2022-11-22T00:53:21.366Z,11.10
2022-11-22T00:54:21.336Z,13.10
2022-11-22T00:55:21.338Z,13.50
2022-11-22T00:56:21.320Z,10.80
2022-11-22T00:57:21.275Z,13.60
2022-11-22T00:58:21.264Z,14.30
2022-11-22T00:59:21.249Z,14.60
2022-11-22T01:00:21.220Z,13.90
2022-11-22T01:01:21.283Z,11.10
2022-11-22T01:02:21.184Z,12.30
2022-11-22T01:03:21.179Z,14.10
2022-11-22T01:04:21.245Z,14.60
2022-11-22T01:05:21.132Z,13.00
2022-11-22T01:06:21.139Z,15.10
2022-11-22T01:07:21.165Z,16.30
2022-11-22T01:08:21.068Z,13.30
2022-11-22T01:09:21.066Z,14.70
2022-11-22T01:10:21.044Z,12.40
2022-11-22T01:11:21.068Z,17.90
2022-11-22T01:12:21.006Z,17.90
2022-11-22T01:13:20.989Z,17.10
2022-11-22T01:14:20.971Z,12.50
2022-11-22T01:15:20.954Z,13.80
2022-11-22T01:16:21.192Z,13.90
2022-11-22T01:17:20.969Z,15.60
2022-11-22T01:18:20.903Z,15.30
2022-11-22T01:19:20.891Z,14.10
2022-11-22T01:20:20.866Z,14.60
2022-11-22T01:21:20.869Z,17.70
2022-11-22T01:22:20.839Z,13.90
2022-11-22T01:23:20.808Z,12.60
2022-11-22T01:24:20.790Z,16.70
2022-11-22T01:25:20.768Z,17.30
2022-11-22T01:26:20.806Z,14.20
2022-11-22T01:27:20.745Z,13.20
2022-11-22T01:28:20.732Z,17.20
2022-11-22T01:29:20.694Z,11.50
2022-11-22T01:30:20.739Z,14.50
2022-11-22T01:31:20.705Z,16.10
2022-11-22T01:32:20.649Z,12.10
2022-11-22T01:33:20.649Z,12.60
2022-11-22T01:34:20.608Z,16.70
2022-11-22T01:35:20.613Z,15.80
2022-11-22T01:36:20.604Z,13.00
2022-11-22T01:37:20.603Z,17.40
2022-11-22T01:38:20.550Z,14.60
2022-11-22T01:39:20.520Z,12.90
2022-11-22T01:40:20.498Z,13.90
2022-11-22T01:41:20.510Z,15.90
2022-11-22T01:42:20.488Z,12.80
2022-11-22T01:43:20.448Z,15.50
2022-11-22T01:44:20.426Z,16.00
2022-11-22T01:45:20.405Z,16.10
2022-11-22T01:46:20.417Z,12.60
2022-11-22T01:47:20.384Z,17.60
2022-11-22T01:48:20.351Z,17.10
2022-11-22T01:49:20.343Z,14.90
2022-11-22T01:50:20.317Z,15.60
2022-11-22T01:51:20.334Z,15.60
2022-11-22T01:52:20.283Z,20.30
2022-11-22T01:53:20.264Z,14.90
2022-11-22T01:54:20.245Z,19.20
2022-11-22T01:55:20.246Z,15.80
2022-11-22T01:56:20.227Z,17.10
2022-11-22T01:57:20.202Z,17.40
2022-11-22T01:58:20.165Z,16.40
2022-11-22T01:59:20.144Z,16.20
2022-11-22T02:00:20.126Z,15.30
2022-11-22T02:01:20.228Z,16.70
2022-11-22T02:02:20.096Z,17.00
2022-11-22T02:03:20.069Z,16.80
2022-11-22T02:04:20.052Z,16.50
2022-11-22T02:05:20.028Z,17.30
2022-11-22T02:06:20.041Z,18.40
2022-11-22T02:07:20.023Z,16.50
2022-11-22T02:08:19.977Z,17.80
2022-11-22T02:09:19.951Z,18.60
2022-11-22T02:10:19.937Z,20.80
2022-11-22T02:11:19.937Z,17.30
2022-11-22T02:12:19.941Z,16.30
2022-11-22T02:13:19.933Z,19.10
2022-11-22T02:14:19.854Z,18.90
2022-11-22T02:15:19.886Z,18.10
2022-11-22T02:16:19.830Z,16.60
2022-11-22T02:17:19.822Z,18.50
2022-11-22T02:18:19.780Z,18.60
2022-11-22T02:19:19.755Z,17.10
2022-11-22T02:20:19.766Z,14.70
2022-11-22T02:21:19.751Z,16.90
2022-11-22T02:22:19.709Z,13.90
2022-11-22T02:23:19.695Z,17.90
2022-11-22T02:24:19.670Z,16.70
2022-11-22T02:25:19.653Z,15.10
2022-11-22T02:26:19.669Z,16.40
2022-11-22T02:27:19.631Z,19.60
2022-11-22T02:28:19.593Z,15.50
2022-11-22T02:29:19.580Z,15.50
2022-11-22T02:30:19.554Z,14.10
2022-11-22T02:31:19.571Z,15.40
2022-11-22T02:32:19.521Z,17.20
2022-11-22T02:33:19.500Z,17.50
2022-11-22T02:34:19.525Z,19.10
2022-11-22T02:35:20.476Z,16.70
2022-11-22T02:36:19.468Z,17.20
2022-11-22T02:37:19.445Z,15.90
2022-11-22T02:38:19.415Z,14.50
2022-11-22T02:39:19.392Z,13.10
2022-11-22T02:40:19.372Z,17.90
2022-11-22T02:41:19.378Z,15.60
2022-11-22T02:42:19.335Z,14.50
2022-11-22T02:43:19.317Z,14.60
2022-11-22T02:44:19.301Z,15.50
2022-11-22T02:45:19.282Z,13.20
2022-11-22T02:46:19.278Z,16.10
2022-11-22T02:47:19.247Z,17.00
2022-11-22T02:48:19.215Z,14.90
2022-11-22T02:49:19.197Z,16.60
2022-11-22T02:50:19.179Z,16.20
2022-11-22T02:51:19.184Z,15.20
2022-11-22T02:52:19.146Z,17.70
2022-11-22T02:53:19.123Z,14.90
2022-11-22T02:54:19.103Z,16.50
2022-11-22T02:55:19.087Z,15.70
2022-11-22T02:56:19.098Z,16.30
2022-11-22T02:57:19.061Z,14.60
2022-11-22T02:58:19.029Z,14.30
2022-11-22T02:59:19.014Z,17.10
2022-11-22T03:00:18.997Z,17.00
2022-11-22T03:01:19.043Z,16.70
2022-11-22T03:02:18.957Z,16.20
2022-11-22T03:03:18.933Z,14.20
2022-11-22T03:04:18.915Z,15.50
2022-11-22T03:05:18.896Z,19.40
2022-11-22T03:06:18.907Z,15.20
2022-11-22T03:07:18.904Z,13.60
2022-11-22T03:08:18.840Z,17.30
2022-11-22T03:09:18.821Z,14.70
2022-11-22T03:10:18.808Z,19.40
2022-11-22T03:11:18.824Z,12.20
2022-11-22T03:12:18.774Z,15.30
2022-11-22T03:13:18.747Z,15.00
2022-11-22T03:14:18.730Z,16.80
2022-11-22T03:15:18.716Z,12.90
2022-11-22T03:16:18.728Z,15.60
2022-11-22T03:17:18.672Z,15.50
2022-11-22T03:18:18.656Z,15.50
2022-11-22T03:19:18.632Z,17.40
2022-11-22T03:20:18.626Z,14.60
2022-11-22T03:21:18.619Z,17.50
2022-11-22T03:22:18.578Z,17.00
2022-11-22T03:23:18.565Z,14.90
2022-11-22T03:24:18.535Z,17.00
2022-11-22T03:25:18.534Z,14.30
2022-11-22T03:26:18.529Z,17.60
2022-11-22T03:27:18.507Z,15.20
2022-11-22T03:28:18.503Z,15.90
2022-11-22T03:29:18.470Z,18.30
2022-11-22T03:30:18.432Z,19.00
2022-11-22T03:31:18.449Z,15.00
2022-11-22T03:32:18.393Z,14.90
2022-11-22T03:33:18.367Z,16.20
2022-11-22T03:34:18.353Z,17.00
2022-11-22T03:35:18.347Z,16.60
2022-11-22T03:36:18.346Z,17.10
2022-11-22T03:37:18.314Z,14.40
2022-11-22T03:38:18.289Z,14.30
2022-11-22T03:39:18.262Z,16.10
2022-11-22T03:40:18.238Z,14.20
2022-11-22T03:41:18.238Z,14.70
2022-11-22T03:42:21.638Z,16.00
2022-11-22T03:43:19.185Z,13.60
2022-11-22T03:44:18.162Z,14.00
2022-11-22T03:45:18.145Z,12.70
2022-11-22T03:46:18.126Z,15.00
2022-11-22T03:47:18.131Z,12.90
2022-11-22T03:48:18.087Z,13.20
2022-11-22T03:49:18.067Z,12.90
2022-11-22T03:50:18.053Z,11.80
2022-11-22T03:51:18.034Z,15.10
2022-11-22T03:52:18.041Z,15.10
2022-11-22T03:53:17.988Z,17.70
2022-11-22T03:54:17.972Z,16.40
2022-11-22T03:55:17.954Z,17.50
2022-11-22T03:56:17.942Z,15.80
2022-11-22T03:57:17.947Z,16.40
2022-11-22T03:58:17.901Z,13.70
2022-11-22T03:59:17.881Z,16.00
2022-11-22T04:00:17.858Z,15.20
2022-11-22T04:01:17.896Z,13.10
2022-11-22T04:02:17.845Z,13.90
2022-11-22T04:03:17.801Z,15.90
2022-11-22T04:04:17.785Z,14.80
2022-11-22T04:05:17.763Z,19.50
2022-11-22T04:06:17.744Z,15.50
2022-11-22T04:07:17.775Z,14.60
2022-11-22T04:08:17.706Z,14.80
2022-11-22T04:09:17.765Z,14.80
2022-11-22T04:10:22.106Z,16.10
2022-11-22T04:11:18.653Z,15.20
2022-11-22T04:12:17.651Z,16.30
2022-11-22T04:13:17.607Z,17.00
2022-11-22T04:14:17.589Z,17.10
2022-11-22T04:15:17.566Z,17.80
2022-11-22T04:16:17.545Z,16.80
2022-11-22T04:17:17.553Z,17.50
2022-11-22T04:18:17.506Z,17.50
2022-11-22T04:19:17.487Z,17.30
2022-11-22T04:20:17.467Z,18.60
2022-11-22T04:21:17.447Z,20.10
2022-11-22T04:22:17.453Z,18.10
2022-11-22T04:23:17.413Z,16.60
2022-11-22T04:24:17.406Z,18.90
2022-11-22T04:25:17.380Z,18.80
2022-11-22T04:26:17.357Z,16.80
2022-11-22T04:27:17.369Z,16.40
2022-11-22T04:28:17.328Z,16.50
2022-11-22T04:29:17.296Z,18.50
2022-11-22T04:30:20.460Z,19.60
2022-11-22T04:31:18.255Z,20.10
2022-11-22T04:32:17.267Z,17.10
2022-11-22T04:33:17.228Z,18.70
2022-11-22T04:34:17.198Z,21.10
2022-11-22T04:35:17.183Z,22.40
2022-11-22T04:36:17.167Z,19.80
2022-11-22T04:37:17.174Z,17.70
2022-11-22T04:38:17.128Z,17.80
2022-11-22T04:39:17.110Z,20.40
2022-11-22T04:40:17.091Z,21.30
2022-11-22T04:41:17.079Z,19.90
2022-11-22T04:42:17.077Z,27.80
2022-11-22T04:43:17.036Z,21.90
2022-11-22T04:44:17.008Z,21.10
2022-11-22T04:45:16.996Z,21.00
2022-11-22T04:46:16.974Z,19.40
2022-11-22T04:47:16.978Z,21.80
2022-11-22T04:48:16.938Z,24.70
2022-11-22T04:49:16.932Z,22.20
2022-11-22T04:50:16.891Z,21.90
2022-11-22T04:51:16.919Z,21.10
2022-11-22T04:52:16.875Z,23.10
2022-11-22T04:53:16.844Z,24.20
2022-11-22T04:54:16.814Z,21.00
2022-11-22T04:55:16.830Z,25.00
2022-11-22T04:56:16.780Z,22.60
2022-11-22T04:57:16.792Z,24.80
2022-11-22T04:58:16.759Z,24.90
2022-11-22T04:59:16.735Z,23.90
2022-11-22T05:00:16.722Z,22.30
2022-11-22T05:01:16.731Z,21.70
2022-11-22T05:02:16.691Z,22.70
2022-11-22T05:03:16.659Z,23.00
2022-11-22T05:04:16.625Z,27.80
2022-11-22T05:05:16.616Z,24.10
2022-11-22T05:06:16.585Z,24.80
2022-11-22T05:07:16.663Z,26.80
2022-11-22T05:08:16.546Z,24.80
2022-11-22T05:09:16.526Z,26.20
2022-11-22T05:10:19.951Z,26.30
2022-11-22T05:11:17.493Z,25.50
2022-11-22T05:12:16.526Z,24.40
2022-11-22T05:13:16.459Z,26.80
2022-11-22T05:14:16.447Z,25.00
2022-11-22T05:15:16.429Z,26.50
2022-11-22T05:16:16.395Z,28.50
2022-11-22T05:17:16.467Z,25.90
2022-11-22T05:18:16.364Z,28.70
2022-11-22T05:19:16.335Z,30.50
2022-11-22T05:20:16.318Z,26.90
2022-11-22T05:21:16.310Z,23.90
2022-11-22T05:22:16.303Z,28.40
2022-11-22T05:23:16.262Z,24.10
2022-11-22T05:24:16.238Z,23.70
2022-11-22T05:25:17.119Z,29.90
2022-11-22T05:26:16.202Z,26.20
2022-11-22T05:27:16.211Z,32.20
2022-11-22T05:28:16.165Z,30.30
2022-11-22T05:29:16.152Z,30.70
2022-11-22T05:30:17.129Z,27.80
2022-11-22T05:31:16.111Z,27.90
2022-11-22T05:32:16.114Z,28.50
2022-11-22T05:33:16.073Z,32.10
2022-11-22T05:34:16.054Z,26.20
2022-11-22T05:35:16.031Z,30.00
2022-11-22T05:36:16.025Z,30.80
2022-11-22T05:37:16.019Z,30.20
2022-11-22T05:38:15.974Z,26.30
2022-11-22T05:39:15.956Z,31.20
2022-11-22T05:40:15.993Z,29.60
2022-11-22T05:41:15.931Z,33.80
2022-11-22T05:42:15.932Z,27.80
2022-11-22T05:43:15.891Z,29.20
2022-11-22T05:44:15.874Z,29.90
2022-11-22T05:45:15.880Z,30.60
2022-11-22T05:46:19.597Z,26.20
2022-11-22T05:47:17.834Z,29.40
2022-11-22T05:48:15.806Z,26.40
2022-11-22T05:49:15.785Z,26.90
2022-11-22T05:50:15.783Z,29.30
2022-11-22T05:51:15.738Z,25.90
2022-11-22T05:52:15.750Z,28.40
2022-11-22T05:53:15.697Z,28.60
2022-11-22T05:54:15.697Z,28.20
2022-11-22T05:55:15.664Z,25.70
2022-11-22T05:56:15.660Z,28.40
2022-11-22T05:57:15.701Z,26.90
2022-11-22T05:58:15.627Z,30.70
2022-11-22T05:59:15.580Z,31.60
2022-11-22T06:00:15.565Z,27.10
2022-11-22T06:01:15.554Z,25.80
2022-11-22T06:02:15.638Z,27.40
2022-11-22T06:03:15.517Z,30.10
2022-11-22T06:04:15.519Z,33.70
2022-11-22T06:05:15.465Z,30.50
2022-11-22T06:06:15.441Z,26.10
2022-11-22T06:07:16.512Z,29.60
2022-11-22T06:08:56.278Z,32.50
2022-11-22T06:09:15.396Z,32.90
2022-11-22T06:10:15.372Z,25.90
2022-11-22T06:11:15.362Z,31.20
2022-11-22T06:12:15.367Z,28.80
2022-11-22T06:13:15.330Z,31.70
2022-11-22T06:14:15.300Z,29.90
2022-11-22T06:15:15.285Z,34.70
2022-11-22T06:16:15.265Z,30.60
2022-11-22T06:17:15.269Z,29.50
2022-11-22T06:18:15.218Z,29.90
2022-11-22T06:19:16.205Z,32.20
2022-11-22T06:20:15.189Z,32.50
2022-11-22T06:21:15.170Z,28.30
2022-11-22T06:22:15.176Z,28.30
2022-11-22T06:23:15.130Z,28.90
2022-11-22T06:24:15.137Z,30.10
2022-11-22T06:25:15.103Z,31.10
2022-11-22T06:26:15.076Z,30.50
2022-11-22T06:27:15.086Z,30.60
2022-11-22T06:28:15.066Z,30.20
2022-11-22T06:29:15.022Z,36.10
2022-11-22T06:30:15.509Z,32.60
2022-11-22T06:31:14.984Z,34.10
2022-11-22T06:32:14.995Z,32.80
2022-11-22T06:33:14.951Z,32.30
2022-11-22T06:34:14.925Z,31.40
2022-11-22T06:35:14.911Z,36.90
2022-11-22T06:36:14.896Z,35.60
2022-11-22T06:37:14.902Z,35.30
2022-11-22T06:38:14.842Z,37.30
2022-11-22T06:39:15.828Z,37.60
2022-11-22T06:40:15.816Z,34.50
2022-11-22T06:41:14.801Z,31.30
2022-11-22T06:42:14.807Z,30.40
2022-11-22T06:43:14.761Z,32.40
2022-11-22T06:44:14.739Z,27.80
2022-11-22T06:45:14.721Z,33.80
2022-11-22T06:46:14.701Z,35.60
2022-11-22T06:47:14.711Z,34.10
2022-11-22T06:48:14.663Z,31.40
2022-11-22T06:49:14.642Z,31.40
2022-11-22T06:50:18.876Z,31.30
2022-11-22T06:51:15.607Z,32.90
2022-11-22T06:52:14.615Z,27.90
2022-11-22T06:53:32.621Z,31.80
2022-11-22T06:54:16.548Z,28.30
2022-11-22T06:55:42.321Z,28.40
2022-11-22T06:56:15.514Z,25.80
2022-11-22T06:57:14.529Z,28.10
2022-11-22T06:58:14.472Z,26.00
2022-11-22T06:59:15.458Z,28.80
2022-11-22T07:00:14.466Z,25.20
2022-11-22T07:01:14.481Z,28.40
2022-11-22T07:02:14.431Z,25.50
2022-11-22T07:03:14.380Z,23.30
2022-11-22T07:04:14.365Z,28.20
2022-11-22T07:05:29.597Z,28.70
2022-11-22T07:06:16.325Z,27.10
2022-11-22T07:07:14.383Z,23.70
2022-11-22T07:08:14.465Z,25.80
2022-11-22T07:09:14.278Z,23.50
2022-11-22T07:10:14.273Z,26.20
2022-11-22T07:11:14.237Z,27.60
2022-11-22T07:12:14.219Z,24.40
2022-11-22T07:13:14.230Z,26.80
2022-11-22T07:14:14.191Z,23.00
2022-11-22T07:15:14.158Z,24.20
2022-11-22T07:16:14.147Z,24.10
2022-11-22T07:17:14.131Z,22.10
2022-11-22T07:18:14.132Z,22.80
2022-11-22T07:19:14.085Z,19.00
2022-11-22T07:20:14.064Z,24.50
2022-11-22T07:21:14.075Z,19.20
2022-11-22T07:22:14.024Z,21.70
2022-11-22T07:23:14.036Z,21.40
2022-11-22T07:24:13.995Z,24.20
2022-11-22T07:25:13.998Z,22.00
2022-11-22T07:26:13.955Z,19.20
2022-11-22T07:27:13.934Z,21.60
2022-11-22T07:28:13.911Z,21.20
2022-11-22T07:29:13.890Z,17.80
2022-11-22T07:30:13.898Z,16.90
2022-11-22T07:31:13.857Z,17.80
2022-11-22T07:32:13.836Z,22.40
2022-11-22T07:33:13.841Z,19.00
2022-11-22T07:34:13.797Z,14.20
2022-11-22T07:35:13.783Z,19.70
2022-11-22T07:36:13.768Z,16.70
2022-11-22T07:37:13.740Z,16.90
2022-11-22T07:38:13.866Z,17.80
2022-11-22T07:39:13.733Z,20.70
2022-11-22T07:40:13.682Z,17.20
2022-11-22T07:41:13.663Z,18.10
2022-11-22T07:42:13.644Z,16.50
2022-11-22T07:43:13.656Z,14.70
2022-11-22T07:44:13.606Z,15.50
2022-11-22T07:45:13.589Z,19.00
2022-11-22T07:46:13.575Z,16.40
2022-11-22T07:47:16.187Z,16.20
2022-11-22T07:48:14.557Z,15.00
2022-11-22T07:49:13.515Z,14.20
2022-11-22T07:50:13.497Z,17.00
2022-11-22T07:51:13.475Z,17.70
2022-11-22T07:52:13.456Z,15.20
2022-11-22T07:53:13.465Z,20.60
2022-11-22T07:54:13.417Z,16.80
2022-11-22T07:55:14.417Z,16.10
2022-11-22T07:56:14.390Z,14.70
2022-11-22T07:57:13.370Z,16.10
2022-11-22T07:58:13.374Z,17.80
2022-11-22T07:59:13.343Z,15.40
2022-11-22T08:00:13.313Z,17.00
2022-11-22T08:01:13.336Z,16.50
2022-11-22T08:02:13.305Z,17.30
2022-11-22T08:03:17.554Z,15.40
2022-11-22T08:04:14.235Z,19.50
2022-11-22T08:05:13.310Z,16.60
2022-11-22T08:06:13.203Z,19.70
2022-11-22T08:07:13.242Z,15.60
2022-11-22T08:08:13.246Z,17.50
2022-11-22T08:09:13.212Z,17.00
2022-11-22T08:10:13.158Z,18.50
2022-11-22T08:11:13.112Z,19.00
2022-11-22T08:12:13.091Z,15.70
2022-11-22T08:13:13.103Z,17.00
2022-11-22T08:14:13.054Z,15.20
2022-11-22T08:15:13.041Z,15.50
2022-11-22T08:16:13.024Z,14.40
2022-11-22T08:17:13.002Z,15.40
2022-11-22T08:18:13.009Z,13.90
2022-11-22T08:19:12.974Z,15.40
2022-11-22T08:20:13.014Z,13.90
2022-11-22T08:21:12.934Z,15.70
2022-11-22T08:22:12.910Z,17.40
2022-11-22T08:23:12.913Z,15.80
2022-11-22T08:24:12.947Z,14.20
2022-11-22T08:25:12.853Z,13.40
2022-11-22T08:26:12.851Z,15.90
2022-11-22T08:27:12.834Z,13.90
2022-11-22T08:28:12.829Z,16.00
2022-11-22T08:29:14.574Z,14.10
2022-11-22T08:30:13.764Z,13.80
2022-11-22T08:31:12.755Z,16.20
2022-11-22T08:32:12.730Z,13.50
2022-11-22T08:33:12.738Z,13.00
2022-11-22T08:34:12.693Z,12.30
2022-11-22T08:35:12.675Z,14.70
2022-11-22T08:36:12.655Z,12.80
2022-11-22T08:37:12.653Z,13.80
2022-11-22T08:38:12.644Z,12.70
2022-11-22T08:39:12.606Z,15.00
2022-11-22T08:40:12.665Z,13.20
2022-11-22T08:41:12.586Z,10.80
2022-11-22T08:42:12.554Z,11.60
2022-11-22T08:43:12.567Z,9.40
2022-11-22T08:44:12.518Z,9.20
2022-11-22T08:45:12.500Z,7.80
2022-11-22T08:46:12.481Z,9.00
2022-11-22T08:47:12.469Z,9.90
2022-11-22T08:48:15.366Z,9.10
2022-11-22T08:49:13.430Z,9.20
2022-11-22T08:50:12.450Z,11.10
2022-11-22T08:51:12.387Z,9.50
2022-11-22T08:52:13.383Z,10.70
2022-11-22T08:53:12.391Z,10.90
2022-11-22T08:54:12.343Z,10.40
2022-11-22T08:55:12.331Z,6.80
2022-11-22T08:56:12.383Z,9.20
2022-11-22T08:57:12.291Z,11.00
2022-11-22T08:58:12.306Z,9.60
2022-11-22T08:59:12.302Z,9.70
2022-11-22T09:00:12.291Z,7.00
2022-11-22T09:01:12.250Z,9.10
2022-11-22T09:02:12.192Z,8.40
2022-11-22T09:03:12.200Z,9.10
2022-11-22T09:04:12.152Z,7.30
2022-11-22T09:05:12.131Z,8.80
2022-11-22T09:10:14.055Z,10.40
2022-11-22T09:11:12.018Z,9.30
2022-11-22T09:12:12.075Z,9.10
2022-11-22T09:13:11.967Z,12.10
2022-11-22T09:14:11.935Z,6.70
2022-11-22T09:15:12.953Z,7.20
2022-11-22T09:16:11.916Z,8.20
2022-11-22T09:17:16.230Z,7.70
2022-11-22T09:18:13.896Z,8.20
2022-11-22T09:19:11.836Z,11.50
2022-11-22T09:20:11.856Z,9.60
2022-11-22T09:21:11.796Z,7.80
2022-11-22T09:22:11.774Z,13.10
2022-11-22T09:23:11.804Z,9.20
2022-11-22T09:24:11.733Z,9.70
2022-11-22T09:25:11.775Z,10.50
2022-11-22T09:26:11.688Z,12.80
2022-11-22T09:27:11.674Z,12.10
2022-11-22T09:28:11.762Z,8.00
2022-11-22T09:29:11.634Z,11.40
2022-11-22T09:30:11.609Z,11.90
2022-11-22T09:31:11.595Z,9.50
2022-11-22T09:32:11.568Z,12.60
2022-11-22T09:33:11.573Z,10.60
2022-11-22T09:34:11.529Z,12.70
2022-11-22T09:35:11.509Z,9.30
2022-11-22T09:36:11.488Z,8.30
2022-11-22T09:37:11.470Z,8.60
2022-11-22T09:38:11.471Z,9.30
2022-11-22T09:39:11.427Z,12.10
2022-11-22T09:40:11.418Z,9.90
2022-11-22T09:41:11.384Z,10.80
2022-11-22T09:42:11.365Z,9.70
2022-11-22T09:43:11.370Z,10.30
2022-11-22T09:44:11.407Z,11.60
2022-11-22T09:45:11.307Z,12.90
2022-11-22T09:46:11.310Z,17.90
2022-11-22T09:47:11.270Z,11.20
2022-11-22T09:48:11.275Z,14.90
2022-11-22T09:49:11.227Z,12.40
2022-11-22T09:50:11.208Z,13.70
2022-11-22T09:51:11.183Z,15.20
2022-11-22T09:52:11.170Z,13.80
2022-11-22T09:53:11.181Z,12.80
2022-11-22T09:54:11.135Z,11.30
2022-11-22T09:55:11.112Z,13.30
2022-11-22T09:56:11.096Z,12.00
2022-11-22T09:57:11.092Z,12.10
2022-11-22T09:58:11.091Z,17.10
2022-11-22T09:59:11.043Z,12.50
2022-11-22T10:00:11.109Z,13.50
2022-11-22T10:01:11.055Z,10.50
2022-11-22T10:02:18.883Z,14.60
2022-11-22T10:03:13.002Z,14.60
2022-11-22T10:04:10.955Z,11.60
2022-11-22T10:05:10.937Z,15.10
2022-11-22T10:06:10.917Z,13.60
2022-11-22T10:07:10.958Z,12.60
2022-11-22T10:08:10.905Z,15.30
2022-11-22T10:09:10.866Z,13.10
2022-11-22T10:10:10.847Z,14.60
2022-11-22T10:11:10.876Z,15.10
2022-11-22T10:12:10.812Z,15.00
2022-11-22T10:13:10.821Z,14.10
2022-11-22T10:14:10.781Z,12.30
2022-11-22T10:15:10.763Z,14.50
2022-11-22T10:16:10.819Z,12.10
2022-11-22T10:17:10.731Z,16.30
2022-11-22T10:18:10.705Z,14.50
2022-11-22T10:19:10.711Z,18.00
2022-11-22T10:20:10.669Z,15.00
2022-11-22T10:21:10.654Z,15.00
2022-11-22T10:22:10.633Z,13.70
2022-11-22T10:23:10.611Z,18.70
2022-11-22T10:24:10.620Z,13.10
2022-11-22T10:25:10.578Z,13.40
2022-11-22T10:26:10.564Z,16.10
2022-11-22T10:27:10.551Z,16.10
2022-11-22T10:28:10.531Z,15.50
2022-11-22T10:29:10.535Z,13.70
2022-11-22T10:30:10.497Z,17.30
2022-11-22T10:31:10.476Z,13.10
2022-11-22T10:32:10.532Z,13.00
2022-11-22T10:33:10.435Z,15.80
2022-11-22T10:34:10.437Z,14.70
2022-11-22T10:35:11.403Z,16.30
2022-11-22T10:36:10.387Z,15.70
2022-11-22T10:37:10.371Z,12.60
2022-11-22T10:38:10.350Z,18.10
2022-11-22T10:39:10.362Z,14.40
2022-11-22T10:40:10.315Z,15.80
2022-11-22T10:41:10.297Z,13.60
2022-11-22T10:42:10.281Z,12.30
2022-11-22T10:43:10.263Z,12.40
2022-11-22T10:44:10.272Z,13.80
2022-11-22T10:45:10.231Z,13.70
2022-11-22T10:46:10.222Z,11.10
2022-11-22T10:47:10.198Z,15.30
2022-11-22T10:48:10.181Z,13.30
2022-11-22T10:49:10.192Z,10.10
2022-11-22T10:50:10.159Z,14.90
2022-11-22T10:51:10.129Z,12.80
2022-11-22T10:52:10.107Z,12.30
2022-11-22T10:53:10.093Z,14.30
2022-11-22T10:54:10.116Z,13.80
2022-11-22T10:55:10.059Z,12.20
2022-11-22T10:56:10.036Z,14.00
2022-11-22T10:57:10.022Z,15.50
2022-11-22T10:58:10.003Z,13.90
2022-11-22T10:59:10.015Z,13.70
2022-11-22T11:00:09.960Z,18.50
2022-11-22T11:01:09.980Z,14.70
2022-11-22T11:02:09.928Z,13.40
2022-11-22T11:03:09.933Z,9.30
2022-11-22T11:04:10.034Z,13.90
2022-11-22T11:05:09.915Z,13.00
2022-11-22T11:06:37.857Z,14.30
2022-11-22T11:07:12.939Z,15.10
2022-11-22T11:08:37.087Z,17.70
2022-11-22T11:10:02.758Z,13.10
2022-11-22T11:10:14.697Z,12.40
2022-11-22T11:11:11.777Z,13.60
2022-11-22T11:12:09.780Z,15.30
2022-11-22T11:13:09.747Z,13.00
2022-11-22T11:14:09.749Z,13.90
2022-11-22T11:15:09.708Z,14.00
2022-11-22T11:16:09.691Z,15.80
2022-11-22T11:17:09.673Z,12.40
2022-11-22T11:18:09.662Z,15.20
2022-11-22T11:19:09.684Z,14.80
2022-11-22T11:20:09.708Z,12.60
2022-11-22T11:21:09.619Z,13.20
2022-11-22T11:22:09.595Z,14.80
2022-11-22T11:23:16.883Z,12.30
2022-11-22T11:24:11.600Z,15.00
2022-11-22T11:25:09.549Z,16.00
2022-11-22T11:26:09.553Z,11.00
2022-11-22T11:27:09.509Z,13.10
2022-11-22T11:28:09.501Z,16.50
2022-11-22T11:29:09.494Z,11.30
2022-11-22T11:30:10.479Z,11.70
2022-11-22T11:31:09.450Z,14.20
2022-11-22T11:32:09.433Z,13.90
2022-11-22T11:33:09.420Z,11.50
2022-11-22T11:34:09.428Z,13.60
2022-11-22T11:35:09.370Z,9.90
2022-11-22T11:36:09.436Z,14.30
2022-11-22T11:37:09.336Z,12.90
2022-11-22T11:38:09.323Z,13.70
2022-11-22T11:39:09.333Z,12.40
2022-11-22T11:40:09.279Z,11.00
2022-11-22T11:41:09.282Z,12.30
2022-11-22T11:42:09.245Z,14.60
2022-11-22T11:43:09.232Z,11.50
2022-11-22T11:44:09.242Z,14.00
2022-11-22T11:45:09.198Z,15.10
2022-11-22T11:46:09.183Z,9.70
2022-11-22T11:47:09.176Z,9.80
2022-11-22T11:48:09.141Z,12.20
2022-11-22T11:49:09.154Z,11.70
2022-11-22T11:50:09.130Z,13.20
2022-11-22T11:51:09.088Z,13.50
2022-11-22T11:52:09.172Z,10.20
2022-11-22T11:53:09.060Z,15.20
2022-11-22T11:54:09.071Z,15.60
2022-11-22T11:55:09.021Z,12.30
2022-11-22T11:56:09.007Z,12.80
2022-11-22T11:57:09.000Z,14.30
2022-11-22T11:58:12.212Z,8.70
2022-11-22T11:59:09.981Z,10.20
2022-11-22T12:00:08.937Z,12.80
2022-11-22T12:01:08.918Z,9.90
2022-11-22T12:02:08.945Z,9.70
2022-11-22T12:03:08.885Z,12.30
2022-11-22T12:04:08.887Z,9.10
2022-11-22T12:05:08.847Z,10.50
2022-11-22T12:06:08.839Z,8.20
2022-11-22T12:07:08.852Z,10.70
2022-11-22T12:08:08.871Z,9.50
2022-11-22T12:09:08.800Z,12.40
2022-11-22T12:10:08.766Z,11.70
2022-11-22T12:11:08.746Z,10.10
2022-11-22T12:12:08.720Z,11.30
2022-11-22T12:13:08.709Z,13.60
2022-11-22T12:14:23.995Z,12.70
2022-11-22T12:15:12.111Z,12.80
2022-11-22T12:16:09.675Z,12.10
2022-11-22T12:17:08.635Z,11.40
2022-11-22T12:18:08.624Z,11.70
2022-11-22T12:19:08.630Z,10.10
2022-11-22T12:20:08.587Z,10.30
2022-11-22T12:21:08.576Z,9.60
2022-11-22T12:22:08.558Z,12.70
2022-11-22T12:23:08.565Z,15.40
2022-11-22T12:24:40.912Z,11.00
2022-11-22T12:25:31.488Z,11.50
2022-11-22T12:26:10.487Z,13.90
2022-11-22T12:27:08.482Z,13.00
2022-11-22T12:28:08.475Z,11.90
2022-11-22T12:29:08.463Z,12.60
2022-11-22T12:30:08.418Z,10.80
2022-11-22T12:31:14.868Z,10.40
2022-11-22T12:32:09.396Z,12.20
2022-11-22T12:33:08.361Z,14.50
2022-11-22T12:34:08.371Z,12.40
2022-11-22T12:35:08.336Z,10.50
2022-11-22T12:36:08.309Z,13.00
2022-11-22T12:37:08.299Z,11.70
2022-11-22T12:38:08.275Z,11.10
2022-11-22T12:39:08.284Z,10.00
2022-11-22T12:40:08.247Z,13.50
2022-11-22T12:41:08.223Z,9.90
2022-11-22T12:42:08.208Z,12.50
2022-11-22T12:43:08.191Z,10.60
2022-11-22T12:44:08.207Z,8.50
2022-11-22T12:45:08.156Z,11.10
2022-11-22T12:46:08.133Z,13.50
2022-11-22T12:47:08.134Z,12.00
2022-11-22T12:48:08.103Z,13.30
2022-11-22T12:49:08.111Z,10.20
2022-11-22T12:50:08.065Z,13.10
2022-11-22T12:51:08.052Z,8.30
2022-11-22T12:52:08.030Z,12.70
2022-11-22T12:53:08.026Z,11.40
2022-11-22T12:54:08.027Z,9.50
2022-11-22T12:55:07.987Z,11.40
2022-11-22T12:56:08.050Z,8.90
2022-11-22T12:57:07.949Z,13.80
2022-11-22T12:58:07.941Z,11.10